createdAt,value
2018-11-05T00:01:51.699Z,13.18
2018-11-05T00:04:20.790Z,12.82
2018-11-05T00:06:49.912Z,13.18
2018-11-05T00:09:20.634Z,12.75
2018-11-05T00:11:49.427Z,13.65
2018-11-05T00:14:20.875Z,13.98
2018-11-05T00:16:49.753Z,14.03
2018-11-05T00:19:19.747Z,14.33
2018-11-05T00:21:48.342Z,14.78
2018-11-05T00:24:17.254Z,14.45
2018-11-05T00:26:45.731Z,13.85
2018-11-05T00:29:14.288Z,12.98
2018-11-05T00:31:43.005Z,12.75
2018-11-05T00:34:11.474Z,12.30
2018-11-05T00:36:39.761Z,13.15
2018-11-05T00:39:10.708Z,12.18
2018-11-05T00:41:40.001Z,13.65
2018-11-05T00:44:08.870Z,12.33
2018-11-05T00:46:37.580Z,13.20
2018-11-05T00:49:06.360Z,13.55
2018-11-05T00:51:35.265Z,12.93
2018-11-05T00:54:04.277Z,11.90
2018-11-05T00:56:34.165Z,12.43
2018-11-05T00:59:02.713Z,14.58
2018-11-05T01:01:31.338Z,13.40
2018-11-05T01:03:59.921Z,14.30
2018-11-05T01:06:28.357Z,14.10
2018-11-05T01:08:56.759Z,14.10
2018-11-05T01:11:25.261Z,12.30
2018-11-05T01:13:53.631Z,13.68
2018-11-05T01:16:22.210Z,13.25
2018-11-05T01:18:50.805Z,12.37
2018-11-05T01:21:19.390Z,12.37
2018-11-05T01:23:47.959Z,13.58
2018-11-05T01:26:16.582Z,13.68
2018-11-05T01:28:46.455Z,13.60
2018-11-05T01:31:14.974Z,14.07
2018-11-05T01:33:44.249Z,11.88
2018-11-05T01:36:14.901Z,12.33
2018-11-05T01:38:43.369Z,12.82
2018-11-05T01:41:11.993Z,12.25
2018-11-05T01:43:40.884Z,13.20
2018-11-05T01:46:09.313Z,13.60
2018-11-05T01:48:37.933Z,13.18
2018-11-05T01:51:06.891Z,12.60
2018-11-05T01:53:35.379Z,12.50
2018-11-05T01:56:04.299Z,11.53
2018-11-05T01:58:32.891Z,13.28
2018-11-05T02:01:01.362Z,11.68
2018-11-05T02:03:29.894Z,12.90
2018-11-05T02:05:58.506Z,13.20
2018-11-05T02:08:26.880Z,13.28
2018-11-05T02:10:55.425Z,13.18
2018-11-05T02:13:23.873Z,12.25
2018-11-05T02:15:52.368Z,11.80
2018-11-05T02:18:20.693Z,12.00
2018-11-05T02:20:49.540Z,12.40
2018-11-05T02:23:17.962Z,11.50
2018-11-05T02:25:47.268Z,13.93
2018-11-05T02:28:15.905Z,13.30
2018-11-05T02:30:44.567Z,13.90
2018-11-05T02:33:13.112Z,13.90
2018-11-05T02:35:41.615Z,14.28
2018-11-05T02:38:09.972Z,14.18
2018-11-05T02:40:38.661Z,13.03
2018-11-05T02:43:07.037Z,13.70
2018-11-05T02:45:35.386Z,14.90
2018-11-05T02:48:06.849Z,13.70
2018-11-05T02:50:35.299Z,12.13
2018-11-05T02:53:03.963Z,11.93
2018-11-05T02:55:32.344Z,13.70
2018-11-05T02:58:01.261Z,13.30
2018-11-05T03:00:29.559Z,15.93
2018-11-05T03:02:57.900Z,12.95
2018-11-05T03:05:26.271Z,13.70
2018-11-05T03:07:54.572Z,13.85
2018-11-05T03:10:22.902Z,13.08
2018-11-05T03:12:51.483Z,12.90
2018-11-05T03:15:19.764Z,11.75
2018-11-05T03:17:48.651Z,13.53
2018-11-05T03:20:17.027Z,12.45
2018-11-05T03:22:45.683Z,12.53
2018-11-05T03:25:13.901Z,10.40
2018-11-05T03:27:42.215Z,12.05
2018-11-05T03:30:15.385Z,12.40
2018-11-05T03:32:43.899Z,12.68
2018-11-05T03:35:13.001Z,12.60
2018-11-05T03:37:42.419Z,13.20
2018-11-05T03:40:11.927Z,12.70
2018-11-05T03:42:41.407Z,11.33
2018-11-05T03:45:13.189Z,13.53
2018-11-05T03:47:41.626Z,11.70
2018-11-05T03:50:13.181Z,11.12
2018-11-05T03:52:42.205Z,11.70
2018-11-05T03:55:10.685Z,12.47
2018-11-05T03:57:39.048Z,12.50
2018-11-05T04:00:11.537Z,11.75
2018-11-05T04:02:40.014Z,11.22
2018-11-05T04:05:09.620Z,10.95
2018-11-05T04:07:38.638Z,12.03
2018-11-05T04:10:08.504Z,11.35
2018-11-05T04:12:36.830Z,10.45
2018-11-05T04:15:05.952Z,10.72
2018-11-05T04:17:34.388Z,11.45
2018-11-05T04:20:02.857Z,12.20
2018-11-05T04:22:31.345Z,11.57
2018-11-05T04:25:00.156Z,11.50
2018-11-05T04:27:29.557Z,10.58
2018-11-05T04:29:58.006Z,12.63
2018-11-05T04:32:26.523Z,12.05
2018-11-05T04:34:55.190Z,11.10
2018-11-05T04:37:23.622Z,10.93
2018-11-05T04:39:52.064Z,12.60
2018-11-05T04:42:20.422Z,12.35
2018-11-05T04:44:48.788Z,11.38
2018-11-05T04:47:17.179Z,12.45
2018-11-05T04:49:45.512Z,12.50
2018-11-05T04:52:14.034Z,12.30
2018-11-05T04:54:42.501Z,13.22
2018-11-05T04:57:11.214Z,13.60
2018-11-05T04:59:39.570Z,14.18
2018-11-05T05:02:08.170Z,13.45
2018-11-05T05:04:36.675Z,12.90
2018-11-05T05:07:05.305Z,13.20
2018-11-05T05:09:33.708Z,11.97
2018-11-05T05:14:41.887Z,12.10
2018-11-05T05:17:12.032Z,12.13
2018-11-05T05:19:40.409Z,12.80
2018-11-05T05:22:08.881Z,12.78
2018-11-05T05:24:37.304Z,12.10
2018-11-05T05:27:05.980Z,11.95
2018-11-05T05:29:34.416Z,10.93
2018-11-05T05:32:02.995Z,11.08
2018-11-05T05:34:31.526Z,12.25
2018-11-05T05:36:59.927Z,12.80
2018-11-05T05:39:28.621Z,12.03
2018-11-05T05:41:57.168Z,12.98
2018-11-05T05:44:25.588Z,10.50
2018-11-05T05:46:53.963Z,12.65
2018-11-05T05:49:22.446Z,13.45
2018-11-05T05:51:50.867Z,12.07
2018-11-05T05:54:19.386Z,14.03
2018-11-05T05:56:47.827Z,12.68
2018-11-05T05:59:16.441Z,12.50
2018-11-05T06:01:44.955Z,13.05
2018-11-05T06:04:13.524Z,13.30
2018-11-05T06:06:42.356Z,12.43
2018-11-05T06:09:10.944Z,12.15
2018-11-05T06:11:39.361Z,12.60
2018-11-05T06:14:07.855Z,12.30
2018-11-05T06:16:36.875Z,13.35
2018-11-05T06:19:05.901Z,11.78
2018-11-05T06:21:34.560Z,11.28
2018-11-05T06:24:03.484Z,11.12
2018-11-05T06:26:31.904Z,10.35
2018-11-05T06:29:00.814Z,10.00
2018-11-05T06:31:29.909Z,13.15
2018-11-05T06:34:06.489Z,10.48
2018-11-05T06:36:35.678Z,10.78
2018-11-05T06:39:09.688Z,11.50
2018-11-05T06:44:19.319Z,10.63
2018-11-05T06:46:48.408Z,12.73
2018-11-05T06:49:21.054Z,16.85
2018-11-05T06:52:23.654Z,17.80
2018-11-05T06:54:59.381Z,15.28
2018-11-05T06:57:28.704Z,16.07
2018-11-05T06:59:58.024Z,14.18
2018-11-05T07:02:36.538Z,16.25
2018-11-05T07:05:12.117Z,14.13
2018-11-05T07:07:41.306Z,11.97
2018-11-05T07:10:29.311Z,15.90
2018-11-05T07:13:13.941Z,14.13
2018-11-05T07:15:44.825Z,15.05
2018-11-05T07:18:13.466Z,15.03
2018-11-05T07:20:42.172Z,13.62
2018-11-05T07:23:10.668Z,15.53
2018-11-05T07:25:39.310Z,15.00
2018-11-05T07:28:08.156Z,13.08
2018-11-05T07:30:36.532Z,14.53
2018-11-05T07:33:05.430Z,14.80
2018-11-05T07:35:33.847Z,14.83
2018-11-05T07:38:02.867Z,12.88
2018-11-05T07:40:31.306Z,12.40
2018-11-05T07:43:01.123Z,13.18
2018-11-05T07:45:29.604Z,12.23
2018-11-05T07:47:58.140Z,12.78
2018-11-05T07:50:26.880Z,12.00
2018-11-05T07:52:55.277Z,12.93
2018-11-05T07:55:24.039Z,12.00
2018-11-05T07:57:52.460Z,11.20
2018-11-05T08:00:26.595Z,11.22
2018-11-05T08:02:56.233Z,11.20
2018-11-05T08:05:26.013Z,12.20
2018-11-05T08:07:54.715Z,11.05
2018-11-05T08:10:23.403Z,9.20
2018-11-05T08:12:52.151Z,9.83
2018-11-05T08:15:22.209Z,11.50
2018-11-05T08:17:51.470Z,9.80
2018-11-05T08:20:20.653Z,9.63
2018-11-05T08:22:49.286Z,9.40
2018-11-05T08:25:18.060Z,9.93
2018-11-05T08:27:47.129Z,9.05
2018-11-05T08:30:20.706Z,9.90
2018-11-05T08:32:49.605Z,9.08
2018-11-05T08:35:18.061Z,9.55
2018-11-05T08:37:47.307Z,9.95
2018-11-05T08:40:19.541Z,10.25
2018-11-05T08:42:48.821Z,10.43
2018-11-05T08:45:18.878Z,9.95
2018-11-05T08:47:47.285Z,10.60
2018-11-05T08:50:17.016Z,10.48
2018-11-05T08:52:45.479Z,12.10
2018-11-05T08:55:15.827Z,10.38
2018-11-05T08:57:44.497Z,9.40
2018-11-05T09:00:21.656Z,9.98
2018-11-05T09:02:50.538Z,10.15
2018-11-05T09:05:19.414Z,11.43
2018-11-05T09:07:48.472Z,10.55
2018-11-05T09:10:17.275Z,11.25
2018-11-05T09:12:45.665Z,11.88
2018-11-05T09:15:15.446Z,10.78
2018-11-05T09:17:44.730Z,10.53
2018-11-05T09:20:14.885Z,10.80
2018-11-05T09:22:43.671Z,10.00
2018-11-05T09:25:16.155Z,10.20
2018-11-05T09:27:44.836Z,11.03
2018-11-05T09:30:20.177Z,10.68
2018-11-05T09:32:49.531Z,11.20
2018-11-05T09:35:18.225Z,11.50
2018-11-05T09:37:47.122Z,11.30
2018-11-05T09:40:17.412Z,10.00
2018-11-05T09:42:46.660Z,12.60
2018-11-05T09:45:19.462Z,11.10
2018-11-05T09:47:48.489Z,10.93
2018-11-05T09:50:17.821Z,13.90
2018-11-05T09:52:46.542Z,14.30
2018-11-05T09:55:15.627Z,13.62
2018-11-05T09:57:44.423Z,12.37
2018-11-05T10:00:18.802Z,12.10
2018-11-05T10:02:53.322Z,10.30
2018-11-05T10:05:22.058Z,13.00
2018-11-05T10:07:50.664Z,10.45
2018-11-05T10:10:19.286Z,12.10
2018-11-05T10:12:47.793Z,12.50
2018-11-05T10:15:17.725Z,11.75
2018-11-05T10:17:46.261Z,11.95
2018-11-05T10:20:20.917Z,11.65
2018-11-05T10:22:49.599Z,12.53
2018-11-05T10:25:18.502Z,12.18
2018-11-05T10:27:48.372Z,12.43
2018-11-05T10:30:25.421Z,11.78
2018-11-05T10:32:54.322Z,11.18
2018-11-05T10:35:28.588Z,10.82
2018-11-05T10:37:57.198Z,11.75
2018-11-05T10:40:25.783Z,13.22
2018-11-05T10:42:54.535Z,11.95
2018-11-05T10:45:25.073Z,10.20
2018-11-05T10:47:54.015Z,10.88
2018-11-05T10:50:22.665Z,10.93
2018-11-05T10:52:51.738Z,12.00
2018-11-05T10:55:20.424Z,11.60
2018-11-05T10:57:49.319Z,10.23
2018-11-05T11:00:25.989Z,10.95
2018-11-05T11:05:40.481Z,12.82
2018-11-05T11:08:08.943Z,11.12
2018-11-05T11:10:37.626Z,11.08
2018-11-05T11:13:06.227Z,11.10
2018-11-05T11:15:35.526Z,11.10
2018-11-05T11:18:04.120Z,10.35
2018-11-05T11:20:32.655Z,11.33
2018-11-05T11:23:01.097Z,11.12
2018-11-05T11:25:29.661Z,9.90
2018-11-05T11:27:58.404Z,9.90
2018-11-05T11:30:26.666Z,10.60
2018-11-05T11:32:55.194Z,9.95
2018-11-05T11:35:23.603Z,9.03
2018-11-05T11:37:52.162Z,9.70
2018-11-05T11:40:22.076Z,10.03
2018-11-05T11:42:50.681Z,10.72
2018-11-05T11:45:20.558Z,11.15
2018-11-05T11:47:49.212Z,11.70
2018-11-05T11:50:18.120Z,11.90
2018-11-05T11:52:46.890Z,10.58
2018-11-05T11:55:17.791Z,12.10
2018-11-05T11:57:46.753Z,11.95
2018-11-05T12:00:22.308Z,11.55
2018-11-05T12:02:51.215Z,10.40
2018-11-05T12:05:19.811Z,11.08
2018-11-05T12:07:48.287Z,11.10
2018-11-05T12:10:22.818Z,11.43
2018-11-05T12:12:51.241Z,11.90
2018-11-05T12:15:20.549Z,12.73
2018-11-05T12:17:50.013Z,11.73
2018-11-05T12:20:20.379Z,11.03
2018-11-05T12:22:49.418Z,11.68
2018-11-05T12:25:18.596Z,11.43
2018-11-05T12:27:47.212Z,10.80
2018-11-05T12:30:21.050Z,11.20
2018-11-05T12:32:50.629Z,11.22
2018-11-05T12:35:19.430Z,10.72
2018-11-05T12:37:49.077Z,10.95
2018-11-05T12:40:18.720Z,10.60
2018-11-05T12:42:48.327Z,11.45
2018-11-05T12:45:16.962Z,11.40
2018-11-05T12:47:45.505Z,11.25
2018-11-05T12:50:17.342Z,11.48
2018-11-05T12:52:46.527Z,11.75
2018-11-05T12:55:14.991Z,10.95
2018-11-05T12:57:43.493Z,11.30
2018-11-05T13:00:15.112Z,10.05
2018-11-05T13:02:44.005Z,12.18
2018-11-05T13:05:13.476Z,10.60
2018-11-05T13:07:41.924Z,10.90
2018-11-05T13:10:13.351Z,10.40
2018-11-05T13:12:42.747Z,10.88
2018-11-05T13:15:11.707Z,9.50
2018-11-05T13:17:40.626Z,9.60
2018-11-05T13:20:15.942Z,10.40
2018-11-05T13:22:45.081Z,10.08
2018-11-05T13:25:13.986Z,11.48
2018-11-05T13:27:44.256Z,11.55
2018-11-05T13:30:13.747Z,9.43
2018-11-05T13:32:43.110Z,11.90
2018-11-05T13:35:13.121Z,11.55
2018-11-05T13:37:41.920Z,11.08
2018-11-05T13:40:13.794Z,11.83
2018-11-05T13:42:42.296Z,11.33
2018-11-05T13:45:12.014Z,11.03
2018-11-05T13:47:41.266Z,11.05
2018-11-05T13:50:10.553Z,10.25
2018-11-05T13:52:39.306Z,10.93
2018-11-05T13:55:11.897Z,10.90
2018-11-05T13:57:41.787Z,12.07
2018-11-05T14:00:13.257Z,11.73
2018-11-05T14:02:41.836Z,10.80
2018-11-05T14:05:10.952Z,11.38
2018-11-05T14:07:40.018Z,11.00
2018-11-05T14:10:11.889Z,10.90
2018-11-05T14:12:41.071Z,12.25
2018-11-05T14:15:10.052Z,11.22
2018-11-05T14:17:39.574Z,11.53
2018-11-05T14:20:10.214Z,11.57
2018-11-05T14:22:38.850Z,13.05
2018-11-05T14:25:10.019Z,11.45
2018-11-05T14:27:39.091Z,11.93
2018-11-05T14:30:09.643Z,11.93
2018-11-05T14:32:38.763Z,12.35
2018-11-05T14:35:07.519Z,10.85
2018-11-05T14:37:36.319Z,11.05
2018-11-05T14:40:06.192Z,10.70
2018-11-05T14:42:35.101Z,11.68
2018-11-05T14:45:05.487Z,11.28
2018-11-05T14:47:34.227Z,11.57
2018-11-05T14:50:02.935Z,11.28
2018-11-05T14:52:31.569Z,11.38
2018-11-05T14:55:00.279Z,12.18
2018-11-05T14:57:28.758Z,12.80
2018-11-05T14:59:57.621Z,11.85
2018-11-05T15:02:32.495Z,11.45
2018-11-05T15:05:00.986Z,11.95
2018-11-05T15:07:29.607Z,11.88
2018-11-05T15:09:59.039Z,11.63
2018-11-05T15:12:27.976Z,11.25
2018-11-05T15:14:56.469Z,11.05
2018-11-05T15:17:27.212Z,10.40
2018-11-05T15:19:57.577Z,11.28
2018-11-05T15:22:26.195Z,10.38
2018-11-05T15:24:54.863Z,11.08
2018-11-05T15:27:23.702Z,11.43
2018-11-05T15:29:52.400Z,10.35
2018-11-05T15:32:21.033Z,11.65
2018-11-05T15:34:49.597Z,10.40
2018-11-05T15:37:18.441Z,11.40
2018-11-05T15:39:47.252Z,10.15
2018-11-05T15:42:16.045Z,12.15
2018-11-05T15:44:44.553Z,10.90
2018-11-05T15:47:13.089Z,11.45
2018-11-05T15:49:41.822Z,10.78
2018-11-05T15:52:10.515Z,10.38
2018-11-05T15:54:39.837Z,11.00
2018-11-05T15:57:09.649Z,10.55
2018-11-05T15:59:40.066Z,11.95
2018-11-05T16:02:12.063Z,10.82
2018-11-05T16:04:41.854Z,10.40
2018-11-05T16:07:10.443Z,10.75
2018-11-05T16:09:40.390Z,11.63
2018-11-05T16:12:09.372Z,11.12
2018-11-05T16:14:38.284Z,11.22
2018-11-05T16:17:06.883Z,10.50
2018-11-05T16:19:36.318Z,10.85
2018-11-05T16:22:05.225Z,11.75
2018-11-05T16:24:33.934Z,11.40
2018-11-05T16:27:02.788Z,11.48
2018-11-05T16:29:32.919Z,12.15
2018-11-05T16:32:04.214Z,11.00
2018-11-05T16:34:33.506Z,10.85
2018-11-05T16:37:02.518Z,10.43
2018-11-05T16:39:31.948Z,9.13
2018-11-05T16:42:02.003Z,10.00
2018-11-05T16:44:32.009Z,10.10
2018-11-05T16:47:02.097Z,9.43
2018-11-05T16:49:31.314Z,9.38
2018-11-05T16:52:00.447Z,10.00
2018-11-05T16:54:29.805Z,12.10
2018-11-05T16:56:58.666Z,11.97
2018-11-05T16:59:27.567Z,10.38
2018-11-05T17:01:57.086Z,10.85
2018-11-05T17:04:25.561Z,11.00
2018-11-05T17:06:54.451Z,10.85
2018-11-05T17:09:23.406Z,12.10
2018-11-05T17:11:54.982Z,11.25
2018-11-05T17:14:23.680Z,11.75
2018-11-05T17:16:52.535Z,10.15
2018-11-05T17:19:21.175Z,9.53
2018-11-05T17:21:49.727Z,11.50
2018-11-05T17:24:18.786Z,10.63
2018-11-05T17:26:48.812Z,9.90
2018-11-05T17:29:22.105Z,10.50
2018-11-05T17:31:54.072Z,10.80
2018-11-05T17:37:12.219Z,12.63
2018-11-05T17:39:40.583Z,9.80
2018-11-05T17:42:09.055Z,9.85
2018-11-05T17:44:37.755Z,10.88
2018-11-05T17:47:07.763Z,10.00
2018-11-05T17:49:38.078Z,11.08
2018-11-05T17:52:07.463Z,10.98
2018-11-05T17:54:36.677Z,10.23
2018-11-05T17:57:05.812Z,10.78
2018-11-05T17:59:34.298Z,9.60
2018-11-05T18:02:04.113Z,9.20
2018-11-05T18:04:32.486Z,8.65
2018-11-05T18:07:00.923Z,9.85
2018-11-05T18:09:30.046Z,9.10
2018-11-05T18:11:58.438Z,9.53
2018-11-05T18:14:26.741Z,10.72
2018-11-05T18:16:55.101Z,12.10
2018-11-05T18:19:23.457Z,11.90
2018-11-05T18:21:51.837Z,10.48
2018-11-05T18:24:20.243Z,10.40
2018-11-05T18:26:48.449Z,10.75
2018-11-05T18:29:16.879Z,10.65
2018-11-05T18:31:45.237Z,12.95
2018-11-05T18:34:13.600Z,12.75
2018-11-05T18:36:42.045Z,11.10
2018-11-05T18:39:10.857Z,11.05
2018-11-05T18:41:39.555Z,11.05
2018-11-05T18:44:08.247Z,10.85
2018-11-05T18:46:36.462Z,10.45
2018-11-05T18:49:05.722Z,11.28
2018-11-05T18:51:35.912Z,10.55
2018-11-05T18:54:06.083Z,10.10
2018-11-05T18:56:34.585Z,11.75
2018-11-05T18:59:03.174Z,11.70
2018-11-05T19:01:31.768Z,10.93
2018-11-05T19:04:00.448Z,10.72
2018-11-05T19:06:28.795Z,10.40
2018-11-05T19:08:59.271Z,10.20
2018-11-05T19:11:37.053Z,10.25
2018-11-05T19:14:09.932Z,10.72
2018-11-05T19:16:43.760Z,10.72
2018-11-05T19:19:42.537Z,10.98
2018-11-05T19:22:11.395Z,10.90
2018-11-05T19:24:39.832Z,12.23
2018-11-05T19:27:09.625Z,12.35
2018-11-05T19:29:38.479Z,11.10
2018-11-05T19:32:09.546Z,12.23
2018-11-05T19:34:38.014Z,10.93
2018-11-05T19:37:07.236Z,11.22
2018-11-05T19:39:35.629Z,12.93
2018-11-05T19:44:51.701Z,11.88
2018-11-05T19:47:20.734Z,12.10
2018-11-05T19:49:50.585Z,12.50
2018-11-05T19:52:19.174Z,11.28
2018-11-05T19:54:48.004Z,11.20
2018-11-05T19:57:16.566Z,11.65
2018-11-05T19:59:45.273Z,10.63
2018-11-05T20:02:13.628Z,12.00
2018-11-05T20:04:42.153Z,11.90
2018-11-05T20:07:11.132Z,11.25
2018-11-05T20:09:41.817Z,12.73
2018-11-05T20:12:15.680Z,11.88
2018-11-05T20:14:45.276Z,11.33
2018-11-05T20:17:14.941Z,11.63
2018-11-05T20:19:43.466Z,11.70
2018-11-05T20:22:12.676Z,12.80
2018-11-05T20:24:41.924Z,11.80
2018-11-05T20:27:12.238Z,11.75
2018-11-05T20:29:41.043Z,12.40
2018-11-05T20:32:10.103Z,12.03
2018-11-05T20:34:39.982Z,13.68
2018-11-05T20:37:08.974Z,14.45
2018-11-05T20:39:38.520Z,12.65
2018-11-05T20:42:07.683Z,13.40
2018-11-05T20:44:36.181Z,13.40
2018-11-05T20:47:05.707Z,11.95
2018-11-05T20:49:34.557Z,14.78
2018-11-05T20:52:04.565Z,15.78
2018-11-05T20:54:33.672Z,13.25
2018-11-05T20:57:03.070Z,12.93
2018-11-05T20:59:34.137Z,13.38
2018-11-05T21:02:04.296Z,14.05
2018-11-05T21:04:32.950Z,15.05
2018-11-05T21:10:03.955Z,13.32
2018-11-05T21:12:32.934Z,13.83
2018-11-05T21:15:02.588Z,13.88
2018-11-05T21:18:10.490Z,14.03
2018-11-05T21:20:40.687Z,13.20
2018-11-05T21:23:15.698Z,14.03
2018-11-05T21:25:49.340Z,13.60
2018-11-05T21:31:15.024Z,13.13
2018-11-05T21:33:44.534Z,12.65
2018-11-05T21:36:20.814Z,12.68
2018-11-05T21:38:51.163Z,13.50
2018-11-05T21:41:22.921Z,12.95
2018-11-05T21:43:51.730Z,12.60
2018-11-05T21:46:24.036Z,14.05
2018-11-05T21:49:00.412Z,14.68
2018-11-05T21:51:37.641Z,13.60
2018-11-05T21:54:06.451Z,13.35
2018-11-05T21:56:35.335Z,12.45
2018-11-05T21:59:04.080Z,14.20
2018-11-05T22:01:32.865Z,12.53
2018-11-05T22:04:06.555Z,13.30
2018-11-05T22:06:35.193Z,12.53
2018-11-05T22:09:05.255Z,13.55
2018-11-05T22:11:33.935Z,14.70
2018-11-05T22:14:02.464Z,15.20
2018-11-05T22:16:30.922Z,13.80
2018-11-05T22:18:59.308Z,13.60
2018-11-05T22:21:27.735Z,12.85
2018-11-05T22:23:56.447Z,13.10
2018-11-05T22:26:25.176Z,13.65
2018-11-05T22:28:53.607Z,14.18
2018-11-05T22:31:22.225Z,13.98
2018-11-05T22:33:51.113Z,12.98
2018-11-05T22:36:20.215Z,14.60
2018-11-05T22:38:50.666Z,14.60
2018-11-05T22:41:23.490Z,13.58
2018-11-05T22:43:52.764Z,16.48
2018-11-05T22:46:24.422Z,13.90
2018-11-05T22:48:54.427Z,14.63
2018-11-05T22:51:24.140Z,13.60
2018-11-05T22:53:58.243Z,13.68
2018-11-05T22:56:27.491Z,13.50
2018-11-05T22:58:59.559Z,13.62
2018-11-05T23:01:34.032Z,13.65
2018-11-05T23:04:11.264Z,13.53
2018-11-05T23:06:42.477Z,14.70
2018-11-05T23:09:16.272Z,14.03
2018-11-05T23:11:48.091Z,12.13
2018-11-05T23:14:20.758Z,14.63
2018-11-05T23:16:50.563Z,13.58
2018-11-05T23:19:20.518Z,12.10
2018-11-05T23:21:50.832Z,12.95
2018-11-05T23:24:20.057Z,13.20
2018-11-05T23:26:49.242Z,13.72
2018-11-05T23:29:17.943Z,13.95
2018-11-05T23:31:46.642Z,13.08
2018-11-05T23:34:15.649Z,14.07
2018-11-05T23:36:44.305Z,13.93
2018-11-05T23:39:13.221Z,12.23
2018-11-05T23:41:41.934Z,13.48
2018-11-05T23:44:10.825Z,12.25
2018-11-05T23:46:40.433Z,13.50
2018-11-05T23:49:09.496Z,12.70
2018-11-05T23:51:38.524Z,12.55
2018-11-05T23:54:07.258Z,13.28
2018-11-05T23:56:35.935Z,14.28
2018-11-05T23:59:07.300Z,12.78
